sensor_id;sensor_type;location;lat;lon;timestamp;pressure;altitude;pressure_sealevel;temperature;humidity
70555;BME280;58104;52.744;15.242;2024-03-02T00:00:27;100009.03;;;20.48;51.96
70555;BME280;58104;52.744;15.242;2024-03-02T00:02:53;100008.37;;;20.42;52.20
70555;BME280;58104;52.744;15.242;2024-03-02T00:05:19;100006.89;;;20.48;51.99
70555;BME280;58104;52.744;15.242;2024-03-02T00:07:47;100009.50;;;20.57;51.98
70555;BME280;58104;52.744;15.242;2024-03-02T00:10:11;100008.13;;;20.53;51.70
70555;BME280;58104;52.744;15.242;2024-03-02T00:12:34;100011.40;;;20.43;51.80
70555;BME280;58104;52.744;15.242;2024-03-02T00:15:00;100008.21;;;20.50;52.05
70555;BME280;58104;52.744;15.242;2024-03-02T00:17:25;100013.27;;;20.45;52.19
70555;BME280;58104;52.744;15.242;2024-03-02T00:19:51;100010.17;;;20.38;52.04
70555;BME280;58104;52.744;15.242;2024-03-02T00:22:16;100011.01;;;20.44;51.97
70555;BME280;58104;52.744;15.242;2024-03-02T00:24:42;100013.09;;;20.40;52.21
70555;BME280;58104;52.744;15.242;2024-03-02T00:27:07;100010.78;;;20.30;51.97
70555;BME280;58104;52.744;15.242;2024-03-02T00:29:34;100010.49;;;20.26;52.05
70555;BME280;58104;52.744;15.242;2024-03-02T00:31:58;100009.95;;;20.39;51.98
70555;BME280;58104;52.744;15.242;2024-03-02T00:34:23;100005.76;;;20.48;51.62
70555;BME280;58104;52.744;15.242;2024-03-02T00:36:48;100001.31;;;20.51;51.74
70555;BME280;58104;52.744;15.242;2024-03-02T00:39:15;100006.35;;;20.50;51.56
70555;BME280;58104;52.744;15.242;2024-03-02T00:41:40;100005.80;;;20.43;51.65
70555;BME280;58104;52.744;15.242;2024-03-02T00:44:06;99997.02;;;20.42;51.13
70555;BME280;58104;52.744;15.242;2024-03-02T00:46:35;100001.53;;;20.35;51.81
70555;BME280;58104;52.744;15.242;2024-03-02T00:48:57;99999.28;;;20.45;51.65
70555;BME280;58104;52.744;15.242;2024-03-02T00:51:21;99994.86;;;20.37;51.79
70555;BME280;58104;52.744;15.242;2024-03-02T00:53:46;99994.17;;;20.36;51.66
70555;BME280;58104;52.744;15.242;2024-03-02T00:56:14;99992.32;;;20.38;51.94
70555;BME280;58104;52.744;15.242;2024-03-02T00:58:36;99991.90;;;20.35;51.89
70555;BME280;58104;52.744;15.242;2024-03-02T01:01:02;99992.27;;;20.28;51.82
70555;BME280;58104;52.744;15.242;2024-03-02T01:03:27;99988.10;;;20.28;51.73
70555;BME280;58104;52.744;15.242;2024-03-02T01:05:52;99992.99;;;20.32;51.62
70555;BME280;58104;52.744;15.242;2024-03-02T01:08:18;99990.11;;;20.36;51.58
70555;BME280;58104;52.744;15.242;2024-03-02T01:10:43;99990.88;;;20.30;51.63
70555;BME280;58104;52.744;15.242;2024-03-02T01:13:09;99989.39;;;20.34;51.48
70555;BME280;58104;52.744;15.242;2024-03-02T01:15:34;99987.22;;;20.30;51.72
70555;BME280;58104;52.744;15.242;2024-03-02T01:17:59;99987.83;;;20.31;51.55
70555;BME280;58104;52.744;15.242;2024-03-02T01:20:24;99986.21;;;20.29;51.41
70555;BME280;58104;52.744;15.242;2024-03-02T01:22:50;99982.77;;;20.30;51.40
70555;BME280;58104;52.744;15.242;2024-03-02T01:25:15;99983.99;;;20.32;51.53
70555;BME280;58104;52.744;15.242;2024-03-02T01:27:41;99980.16;;;20.27;51.39
70555;BME280;58104;52.744;15.242;2024-03-02T01:30:07;99976.55;;;20.32;51.46
70555;BME280;58104;52.744;15.242;2024-03-02T01:32:31;99976.55;;;20.32;51.35
70555;BME280;58104;52.744;15.242;2024-03-02T01:34:56;99971.85;;;20.29;51.29
70555;BME280;58104;52.744;15.242;2024-03-02T01:37:22;99972.18;;;20.29;51.62
70555;BME280;58104;52.744;15.242;2024-03-02T01:39:47;99969.95;;;20.30;51.44
70555;BME280;58104;52.744;15.242;2024-03-02T01:42:12;99968.66;;;20.24;51.43
70555;BME280;58104;52.744;15.242;2024-03-02T01:44:37;99966.07;;;20.29;51.29
70555;BME280;58104;52.744;15.242;2024-03-02T01:47:02;99962.86;;;20.22;51.17
70555;BME280;58104;52.744;15.242;2024-03-02T01:49:28;99962.71;;;20.29;51.18
70555;BME280;58104;52.744;15.242;2024-03-02T01:51:53;99961.27;;;20.27;51.30
70555;BME280;58104;52.744;15.242;2024-03-02T01:54:19;99967.05;;;20.29;51.43
70555;BME280;58104;52.744;15.242;2024-03-02T01:56:44;99963.26;;;20.27;51.34
70555;BME280;58104;52.744;15.242;2024-03-02T01:59:09;99961.47;;;20.26;51.13
70555;BME280;58104;52.744;15.242;2024-03-02T02:01:34;99959.58;;;20.26;51.14
70555;BME280;58104;52.744;15.242;2024-03-02T02:04:00;99959.57;;;20.26;51.48
70555;BME280;58104;52.744;15.242;2024-03-02T02:06:25;99957.55;;;20.27;51.27
70555;BME280;58104;52.744;15.242;2024-03-02T02:08:51;99956.07;;;20.15;50.99
70555;BME280;58104;52.744;15.242;2024-03-02T02:11:17;99957.22;;;20.25;50.89
70555;BME280;58104;52.744;15.242;2024-03-02T02:13:42;99958.03;;;20.26;50.93
70555;BME280;58104;52.744;15.242;2024-03-02T02:16:07;99956.56;;;20.23;51.20
70555;BME280;58104;52.744;15.242;2024-03-02T02:18:32;99951.90;;;20.16;51.27
70555;BME280;58104;52.744;15.242;2024-03-02T02:20:59;99951.81;;;20.21;51.20
70555;BME280;58104;52.744;15.242;2024-03-02T02:23:23;99948.89;;;20.20;51.01
70555;BME280;58104;52.744;15.242;2024-03-02T02:25:48;99945.47;;;20.16;51.36
70555;BME280;58104;52.744;15.242;2024-03-02T02:28:14;99945.08;;;20.19;51.24
70555;BME280;58104;52.744;15.242;2024-03-02T02:30:39;99942.79;;;20.17;51.37
70555;BME280;58104;52.744;15.242;2024-03-02T02:33:05;99943.30;;;20.16;51.31
70555;BME280;58104;52.744;15.242;2024-03-02T02:35:30;99938.99;;;20.15;51.29
70555;BME280;58104;52.744;15.242;2024-03-02T02:37:56;99940.25;;;20.16;51.08
70555;BME280;58104;52.744;15.242;2024-03-02T02:40:20;99941.76;;;20.08;51.38
70555;BME280;58104;52.744;15.242;2024-03-02T02:42:46;99944.54;;;20.15;51.14
70555;BME280;58104;52.744;15.242;2024-03-02T02:45:11;99946.59;;;20.11;51.17
70555;BME280;58104;52.744;15.242;2024-03-02T02:47:36;99945.62;;;20.17;51.24
70555;BME280;58104;52.744;15.242;2024-03-02T02:50:02;99945.32;;;20.14;51.23
70555;BME280;58104;52.744;15.242;2024-03-02T02:52:31;99943.62;;;20.12;51.30
70555;BME280;58104;52.744;15.242;2024-03-02T02:54:52;99944.88;;;20.08;51.25
70555;BME280;58104;52.744;15.242;2024-03-02T02:57:17;99942.87;;;20.15;51.03
70555;BME280;58104;52.744;15.242;2024-03-02T02:59:43;99944.92;;;20.15;51.03
70555;BME280;58104;52.744;15.242;2024-03-02T03:02:08;99948.17;;;20.12;51.20
70555;BME280;58104;52.744;15.242;2024-03-02T03:04:33;99945.49;;;20.12;50.92
70555;BME280;58104;52.744;15.242;2024-03-02T03:06:59;99946.18;;;20.13;51.03
70555;BME280;58104;52.744;15.242;2024-03-02T03:09:24;99945.43;;;20.03;50.99
70555;BME280;58104;52.744;15.242;2024-03-02T03:11:50;99941.43;;;20.05;50.98
70555;BME280;58104;52.744;15.242;2024-03-02T03:14:15;99941.12;;;20.05;50.94
70555;BME280;58104;52.744;15.242;2024-03-02T03:16:41;99937.23;;;20.10;50.96
70555;BME280;58104;52.744;15.242;2024-03-02T03:19:06;99940.11;;;20.05;50.84
70555;BME280;58104;52.744;15.242;2024-03-02T03:21:31;99941.40;;;20.08;50.97
70555;BME280;58104;52.744;15.242;2024-03-02T03:23:56;99939.02;;;20.10;50.92
70555;BME280;58104;52.744;15.242;2024-03-02T03:26:22;99939.25;;;20.12;50.71
70555;BME280;58104;52.744;15.242;2024-03-02T03:28:47;99938.59;;;20.05;50.82
70555;BME280;58104;52.744;15.242;2024-03-02T03:31:12;99938.98;;;20.06;50.83
70555;BME280;58104;52.744;15.242;2024-03-02T03:33:37;99941.20;;;20.05;50.80
70555;BME280;58104;52.744;15.242;2024-03-02T03:36:03;99942.89;;;20.08;51.00
70555;BME280;58104;52.744;15.242;2024-03-02T03:38:28;99939.13;;;20.10;50.83
70555;BME280;58104;52.744;15.242;2024-03-02T03:40:53;99940.24;;;20.08;50.71
70555;BME280;58104;52.744;15.242;2024-03-02T03:43:19;99939.17;;;20.08;50.86
70555;BME280;58104;52.744;15.242;2024-03-02T03:45:44;99940.59;;;20.09;50.83
70555;BME280;58104;52.744;15.242;2024-03-02T03:48:09;99941.29;;;20.08;50.65
70555;BME280;58104;52.744;15.242;2024-03-02T03:50:34;99940.59;;;20.09;50.82
70555;BME280;58104;52.744;15.242;2024-03-02T03:52:59;99939.51;;;20.09;50.74
70555;BME280;58104;52.744;15.242;2024-03-02T03:55:24;99938.59;;;20.10;50.71
70555;BME280;58104;52.744;15.242;2024-03-02T03:57:51;99942.31;;;20.09;50.72
70555;BME280;58104;52.744;15.242;2024-03-02T04:00:15;99945.62;;;20.10;50.71
70555;BME280;58104;52.744;15.242;2024-03-02T04:02:41;99945.01;;;20.08;50.71
70555;BME280;58104;52.744;15.242;2024-03-02T04:05:06;99945.81;;;20.07;50.93
70555;BME280;58104;52.744;15.242;2024-03-02T04:07:31;99945.61;;;20.08;50.71
70555;BME280;58104;52.744;15.242;2024-03-02T04:09:56;99944.50;;;20.04;50.72
70555;BME280;58104;52.744;15.242;2024-03-02T04:12:22;99946.90;;;20.07;50.79
70555;BME280;58104;52.744;15.242;2024-03-02T04:14:47;99944.88;;;20.10;50.61
70555;BME280;58104;52.744;15.242;2024-03-02T04:17:12;99939.22;;;20.06;50.67
70555;BME280;58104;52.744;15.242;2024-03-02T04:19:38;99943.72;;;20.05;50.73
70555;BME280;58104;52.744;15.242;2024-03-02T04:22:04;99944.76;;;20.07;50.64
70555;BME280;58104;52.744;15.242;2024-03-02T04:24:29;99948.04;;;20.07;50.48
70555;BME280;58104;52.744;15.242;2024-03-02T04:26:54;99945.74;;;20.09;50.68
70555;BME280;58104;52.744;15.242;2024-03-02T04:29:20;99943.88;;;20.06;50.72
70555;BME280;58104;52.744;15.242;2024-03-02T04:31:45;99948.35;;;20.05;50.51
70555;BME280;58104;52.744;15.242;2024-03-02T04:34:10;99950.61;;;20.07;50.54
70555;BME280;58104;52.744;15.242;2024-03-02T04:36:36;99953.94;;;20.08;50.59
70555;BME280;58104;52.744;15.242;2024-03-02T04:39:02;99956.05;;;20.09;50.59
70555;BME280;58104;52.744;15.242;2024-03-02T04:41:27;99955.99;;;20.08;50.46
70555;BME280;58104;52.744;15.242;2024-03-02T04:43:53;99956.12;;;20.08;50.58
70555;BME280;58104;52.744;15.242;2024-03-02T04:46:18;99957.81;;;20.08;50.27
70555;BME280;58104;52.744;15.242;2024-03-02T04:48:44;99958.69;;;20.08;50.53
70555;BME280;58104;52.744;15.242;2024-03-02T04:51:09;99960.74;;;20.09;50.57
70555;BME280;58104;52.744;15.242;2024-03-02T04:53:34;99962.21;;;20.11;50.42
70555;BME280;58104;52.744;15.242;2024-03-02T04:55:59;99963.79;;;20.08;50.53
70555;BME280;58104;52.744;15.242;2024-03-02T04:58:25;99966.27;;;20.07;50.48
70555;BME280;58104;52.744;15.242;2024-03-02T05:00:50;99970.16;;;20.07;50.40
70555;BME280;58104;52.744;15.242;2024-03-02T05:03:15;99970.56;;;20.05;50.50
70555;BME280;58104;52.744;15.242;2024-03-02T05:05:41;99969.40;;;20.00;50.47
70555;BME280;58104;52.744;15.242;2024-03-02T05:08:06;99972.15;;;20.06;50.54
70555;BME280;58104;52.744;15.242;2024-03-02T05:10:33;99970.41;;;20.03;50.42
70555;BME280;58104;52.744;15.242;2024-03-02T05:12:56;99967.46;;;20.06;50.28
70555;BME280;58104;52.744;15.242;2024-03-02T05:15:22;99968.72;;;20.03;50.31
70555;BME280;58104;52.744;15.242;2024-03-02T05:17:47;99968.81;;;20.06;50.45
70555;BME280;58104;52.744;15.242;2024-03-02T05:20:12;99969.52;;;20.07;50.29
70555;BME280;58104;52.744;15.242;2024-03-02T05:22:38;99970.39;;;20.08;50.36
70555;BME280;58104;52.744;15.242;2024-03-02T05:25:04;99972.86;;;20.03;50.08
70555;BME280;58104;52.744;15.242;2024-03-02T05:27:28;99974.43;;;20.06;50.25
70555;BME280;58104;52.744;15.242;2024-03-02T05:29:54;99976.14;;;20.01;50.52
70555;BME280;58104;52.744;15.242;2024-03-02T05:32:19;99977.18;;;19.99;50.53
70555;BME280;58104;52.744;15.242;2024-03-02T05:34:44;99977.66;;;20.04;50.63
70555;BME280;58104;52.744;15.242;2024-03-02T05:37:10;99979.82;;;20.06;50.36
70555;BME280;58104;52.744;15.242;2024-03-02T05:39:35;99977.70;;;20.03;50.39
70555;BME280;58104;52.744;15.242;2024-03-02T05:42:00;99979.72;;;20.05;50.47
70555;BME280;58104;52.744;15.242;2024-03-02T05:44:26;99979.80;;;20.05;50.32
70555;BME280;58104;52.744;15.242;2024-03-02T05:46:51;99982.43;;;20.04;50.34
70555;BME280;58104;52.744;15.242;2024-03-02T05:49:16;99988.18;;;20.02;50.19
70555;BME280;58104;52.744;15.242;2024-03-02T05:51:41;99987.18;;;20.05;50.21
70555;BME280;58104;52.744;15.242;2024-03-02T05:54:07;99993.72;;;19.97;50.52
70555;BME280;58104;52.744;15.242;2024-03-02T05:56:32;99995.71;;;20.04;50.24
70555;BME280;58104;52.744;15.242;2024-03-02T05:58:58;100000.64;;;20.01;50.31
70555;BME280;58104;52.744;15.242;2024-03-02T06:01:23;100001.95;;;20.02;50.35
70555;BME280;58104;52.744;15.242;2024-03-02T06:03:49;100005.30;;;20.03;50.34
70555;BME280;58104;52.744;15.242;2024-03-02T06:06:15;100013.24;;;20.03;50.28
70555;BME280;58104;52.744;15.242;2024-03-02T06:08:40;100018.84;;;20.02;50.30
70555;BME280;58104;52.744;15.242;2024-03-02T06:11:06;100018.52;;;19.99;50.40
70555;BME280;58104;52.744;15.242;2024-03-02T06:13:31;100020.64;;;20.00;50.55
70555;BME280;58104;52.744;15.242;2024-03-02T06:15:56;100024.25;;;20.00;50.28
70555;BME280;58104;52.744;15.242;2024-03-02T06:18:22;100029.93;;;20.04;50.13
70555;BME280;58104;52.744;15.242;2024-03-02T06:20:47;100028.11;;;20.03;50.03
70555;BME280;58104;52.744;15.242;2024-03-02T06:23:13;100026.82;;;19.96;50.20
70555;BME280;58104;52.744;15.242;2024-03-02T06:25:38;100027.78;;;20.03;50.14
70555;BME280;58104;52.744;15.242;2024-03-02T06:28:04;100026.21;;;20.06;49.54
70555;BME280;58104;52.744;15.242;2024-03-02T06:30:29;100029.02;;;20.04;50.08
70555;BME280;58104;52.744;15.242;2024-03-02T06:32:55;100032.99;;;20.02;50.05
70555;BME280;58104;52.744;15.242;2024-03-02T06:35:21;100035.26;;;20.05;50.03
70555;BME280;58104;52.744;15.242;2024-03-02T06:37:46;100039.12;;;20.05;50.01
70555;BME280;58104;52.744;15.242;2024-03-02T06:40:12;100045.58;;;19.99;50.26
70555;BME280;58104;52.744;15.242;2024-03-02T06:42:37;100038.14;;;20.04;49.84
70555;BME280;58104;52.744;15.242;2024-03-02T06:45:03;100044.78;;;20.12;49.86
70555;BME280;58104;52.744;15.242;2024-03-02T06:47:28;100051.77;;;20.03;50.12
70555;BME280;58104;52.744;15.242;2024-03-02T06:49:53;100047.00;;;20.03;50.14
70555;BME280;58104;52.744;15.242;2024-03-02T06:52:19;100052.34;;;19.99;50.09
70555;BME280;58104;52.744;15.242;2024-03-02T06:54:44;100052.59;;;20.07;50.16
70555;BME280;58104;52.744;15.242;2024-03-02T06:57:09;100054.39;;;19.92;50.29
70555;BME280;58104;52.744;15.242;2024-03-02T06:59:35;100057.19;;;19.98;50.08
70555;BME280;58104;52.744;15.242;2024-03-02T07:02:01;100059.90;;;20.00;50.09
70555;BME280;58104;52.744;15.242;2024-03-02T07:04:26;100060.52;;;20.00;50.11
70555;BME280;58104;52.744;15.242;2024-03-02T07:06:51;100055.62;;;20.00;50.15
70555;BME280;58104;52.744;15.242;2024-03-02T07:09:17;100053.16;;;20.01;50.02
70555;BME280;58104;52.744;15.242;2024-03-02T07:11:43;100058.70;;;19.88;50.00
70555;BME280;58104;52.744;15.242;2024-03-02T07:14:08;100059.43;;;19.97;50.04
70555;BME280;58104;52.744;15.242;2024-03-02T07:16:33;100059.63;;;19.97;50.02
70555;BME280;58104;52.744;15.242;2024-03-02T07:18:59;100063.47;;;19.99;50.13
70555;BME280;58104;52.744;15.242;2024-03-02T07:21:25;100060.95;;;20.06;50.14
70555;BME280;58104;52.744;15.242;2024-03-02T07:23:50;100060.09;;;20.00;50.05
70555;BME280;58104;52.744;15.242;2024-03-02T07:26:15;100060.09;;;19.97;50.13
70555;BME280;58104;52.744;15.242;2024-03-02T07:28:40;100067.94;;;20.00;50.03
70555;BME280;58104;52.744;15.242;2024-03-02T07:31:06;100067.14;;;19.98;50.03
70555;BME280;58104;52.744;15.242;2024-03-02T07:33:32;100070.57;;;19.95;49.91
70555;BME280;58104;52.744;15.242;2024-03-02T07:35:58;100074.91;;;19.93;49.66
70555;BME280;58104;52.744;15.242;2024-03-02T07:38:23;100074.92;;;19.96;50.04
70555;BME280;58104;52.744;15.242;2024-03-02T07:40:49;100076.66;;;19.97;49.66
70555;BME280;58104;52.744;15.242;2024-03-02T07:43:14;100079.33;;;19.98;49.77
70555;BME280;58104;52.744;15.242;2024-03-02T07:45:40;100078.83;;;19.96;49.83
70555;BME280;58104;52.744;15.242;2024-03-02T07:48:06;100083.76;;;19.95;49.95
70555;BME280;58104;52.744;15.242;2024-03-02T07:50:30;100088.02;;;19.90;49.81
70555;BME280;58104;52.744;15.242;2024-03-02T07:52:56;100087.92;;;19.96;49.91
70555;BME280;58104;52.744;15.242;2024-03-02T07:55:21;100089.54;;;19.93;50.14
70555;BME280;58104;52.744;15.242;2024-03-02T07:57:47;100087.22;;;19.97;49.82
70555;BME280;58104;52.744;15.242;2024-03-02T08:00:13;100089.59;;;19.97;49.97
70555;BME280;58104;52.744;15.242;2024-03-02T08:02:38;100091.38;;;19.95;50.08
70555;BME280;58104;52.744;15.242;2024-03-02T08:05:03;100090.55;;;19.98;49.84
70555;BME280;58104;52.744;15.242;2024-03-02T08:07:28;100089.97;;;19.97;49.67
70555;BME280;58104;52.744;15.242;2024-03-02T08:09:54;100091.00;;;19.95;49.80
70555;BME280;58104;52.744;15.242;2024-03-02T08:12:19;100089.85;;;19.93;49.98
70555;BME280;58104;52.744;15.242;2024-03-02T08:14:44;100092.07;;;19.97;50.21
70555;BME280;58104;52.744;15.242;2024-03-02T08:17:10;100095.32;;;20.05;49.87
70555;BME280;58104;52.744;15.242;2024-03-02T08:19:36;100098.02;;;20.09;50.03
70555;BME280;58104;52.744;15.242;2024-03-02T08:22:02;100096.31;;;20.02;49.26
70555;BME280;58104;52.744;15.242;2024-03-02T08:24:27;100094.55;;;19.99;49.43
70555;BME280;58104;52.744;15.242;2024-03-02T08:26:52;100098.89;;;20.02;50.52
70555;BME280;58104;52.744;15.242;2024-03-02T08:29:18;100103.11;;;19.99;50.17
70555;BME280;58104;52.744;15.242;2024-03-02T08:31:43;100106.10;;;19.88;49.41
70555;BME280;58104;52.744;15.242;2024-03-02T08:34:09;100103.62;;;19.93;49.96
70555;BME280;58104;52.744;15.242;2024-03-02T08:36:35;100102.83;;;19.79;48.99
70555;BME280;58104;52.744;15.242;2024-03-02T08:39:00;100102.36;;;19.70;50.26
70555;BME280;58104;52.744;15.242;2024-03-02T08:41:26;100105.34;;;19.66;50.20
70555;BME280;58104;52.744;15.242;2024-03-02T08:43:51;100112.26;;;19.77;50.19
70555;BME280;58104;52.744;15.242;2024-03-02T08:46:16;100112.95;;;19.83;51.06
70555;BME280;58104;52.744;15.242;2024-03-02T08:48:42;100114.03;;;19.73;49.82
70555;BME280;58104;52.744;15.242;2024-03-02T08:51:07;100117.19;;;19.84;51.28
70555;BME280;58104;52.744;15.242;2024-03-02T08:53:33;100115.93;;;20.04;52.40
70555;BME280;58104;52.744;15.242;2024-03-02T08:55:58;100119.98;;;20.09;51.03
70555;BME280;58104;52.744;15.242;2024-03-02T08:58:24;100124.40;;;19.99;52.41
70555;BME280;58104;52.744;15.242;2024-03-02T09:00:50;100126.55;;;19.93;51.48
70555;BME280;58104;52.744;15.242;2024-03-02T09:03:16;100123.74;;;19.87;50.99
70555;BME280;58104;52.744;15.242;2024-03-02T09:05:41;100130.15;;;19.90;51.33
70555;BME280;58104;52.744;15.242;2024-03-02T09:08:06;100130.84;;;19.93;50.01
70555;BME280;58104;52.744;15.242;2024-03-02T09:10:31;100139.23;;;20.06;52.75
70555;BME280;58104;52.744;15.242;2024-03-02T09:12:58;100133.46;;;20.16;52.09
70555;BME280;58104;52.744;15.242;2024-03-02T09:15:22;100134.91;;;20.09;52.92
70555;BME280;58104;52.744;15.242;2024-03-02T09:17:48;100134.40;;;20.10;51.94
70555;BME280;58104;52.744;15.242;2024-03-02T09:20:14;100134.20;;;20.04;53.62
70555;BME280;58104;52.744;15.242;2024-03-02T09:22:40;100130.63;;;20.06;49.56
70555;BME280;58104;52.744;15.242;2024-03-02T09:25:06;100132.23;;;20.05;52.37
70555;BME280;58104;52.744;15.242;2024-03-02T09:27:31;100134.12;;;20.13;52.09
70555;BME280;58104;52.744;15.242;2024-03-02T09:29:56;100139.40;;;20.03;52.58
70555;BME280;58104;52.744;15.242;2024-03-02T09:32:21;100141.23;;;20.22;51.87
70555;BME280;58104;52.744;15.242;2024-03-02T09:34:47;100141.13;;;20.21;52.03
70555;BME280;58104;52.744;15.242;2024-03-02T09:37:12;100140.79;;;20.18;50.44
70555;BME280;58104;52.744;15.242;2024-03-02T09:39:38;100147.89;;;20.17;50.06
70555;BME280;58104;52.744;15.242;2024-03-02T09:42:04;100150.74;;;20.11;51.82
70555;BME280;58104;52.744;15.242;2024-03-02T09:44:29;100154.43;;;20.09;52.60
70555;BME280;58104;52.744;15.242;2024-03-02T09:46:54;100155.35;;;20.06;50.25
70555;BME280;58104;52.744;15.242;2024-03-02T09:49:19;100156.45;;;20.09;51.60
70555;BME280;58104;52.744;15.242;2024-03-02T09:51:47;100159.42;;;20.18;51.58
70555;BME280;58104;52.744;15.242;2024-03-02T09:54:10;100160.70;;;20.21;53.37
70555;BME280;58104;52.744;15.242;2024-03-02T09:56:36;100158.87;;;20.28;52.71
70555;BME280;58104;52.744;15.242;2024-03-02T09:59:01;100159.04;;;20.30;51.28
70555;BME280;58104;52.744;15.242;2024-03-02T10:01:29;100154.42;;;20.21;50.01
70555;BME280;58104;52.744;15.242;2024-03-02T10:03:53;100151.17;;;20.23;49.49
70555;BME280;58104;52.744;15.242;2024-03-02T10:06:19;100154.01;;;20.22;50.58
70555;BME280;58104;52.744;15.242;2024-03-02T10:08:43;100158.94;;;20.23;49.93
70555;BME280;58104;52.744;15.242;2024-03-02T10:11:09;100161.91;;;20.38;50.30
70555;BME280;58104;52.744;15.242;2024-03-02T10:13:35;100164.14;;;20.29;52.04
70555;BME280;58104;52.744;15.242;2024-03-02T10:18:26;100170.04;;;20.28;51.92
70555;BME280;58104;52.744;15.242;2024-03-02T10:20:50;100168.38;;;20.36;51.57
70555;BME280;58104;52.744;15.242;2024-03-02T10:23:16;100163.14;;;20.36;52.91
70555;BME280;58104;52.744;15.242;2024-03-02T10:25:42;100158.84;;;20.49;51.69
70555;BME280;58104;52.744;15.242;2024-03-02T10:28:07;100160.43;;;20.26;50.14
70555;BME280;58104;52.744;15.242;2024-03-02T10:30:33;100163.07;;;20.09;52.27
70555;BME280;58104;52.744;15.242;2024-03-02T10:32:57;100159.57;;;20.13;51.75
70555;BME280;58104;52.744;15.242;2024-03-02T10:35:23;100162.32;;;20.30;51.83
70555;BME280;58104;52.744;15.242;2024-03-02T10:37:49;100159.50;;;20.35;50.91
70555;BME280;58104;52.744;15.242;2024-03-02T10:40:14;100157.57;;;20.33;49.86
70555;BME280;58104;52.744;15.242;2024-03-02T10:42:39;100159.15;;;20.31;50.34
70555;BME280;58104;52.744;15.242;2024-03-02T10:45:06;100154.63;;;20.16;49.35
70555;BME280;58104;52.744;15.242;2024-03-02T10:47:32;100157.60;;;20.16;53.34
70555;BME280;58104;52.744;15.242;2024-03-02T10:49:59;100157.60;;;20.13;51.95
70555;BME280;58104;52.744;15.242;2024-03-02T10:52:21;100158.58;;;20.20;52.93
70555;BME280;58104;52.744;15.242;2024-03-02T10:54:46;100158.51;;;20.12;49.91
70555;BME280;58104;52.744;15.242;2024-03-02T10:57:14;100157.27;;;20.37;52.17
70555;BME280;58104;52.744;15.242;2024-03-02T10:59:44;100157.96;;;20.18;48.22
70555;BME280;58104;52.744;15.242;2024-03-02T11:02:04;100161.69;;;20.35;52.33
70555;BME280;58104;52.744;15.242;2024-03-02T11:04:30;100158.59;;;20.52;51.75
70555;BME280;58104;52.744;15.242;2024-03-02T11:06:59;100157.83;;;20.42;48.97
70555;BME280;58104;52.744;15.242;2024-03-02T11:09:21;100160.08;;;20.49;48.11
70555;BME280;58104;52.744;15.242;2024-03-02T11:11:48;100157.52;;;20.52;49.07
70555;BME280;58104;52.744;15.242;2024-03-02T11:14:16;100156.56;;;20.55;49.26
70555;BME280;58104;52.744;15.242;2024-03-02T11:16:37;100152.96;;;20.45;48.50
70555;BME280;58104;52.744;15.242;2024-03-02T11:19:04;100150.04;;;20.45;49.38
70555;BME280;58104;52.744;15.242;2024-03-02T11:21:27;100143.19;;;20.33;47.21
70555;BME280;58104;52.744;15.242;2024-03-02T11:23:53;100139.97;;;20.27;49.63
70555;BME280;58104;52.744;15.242;2024-03-02T11:26:18;100139.03;;;20.29;49.17
70555;BME280;58104;52.744;15.242;2024-03-02T11:28:44;100135.63;;;20.45;48.51
70555;BME280;58104;52.744;15.242;2024-03-02T11:31:10;100136.47;;;20.29;47.29
70555;BME280;58104;52.744;15.242;2024-03-02T11:33:35;100137.85;;;20.42;49.10
70555;BME280;58104;52.744;15.242;2024-03-02T11:36:00;100133.54;;;20.47;50.75
70555;BME280;58104;52.744;15.242;2024-03-02T11:38:30;100132.25;;;20.45;47.83
70555;BME280;58104;52.744;15.242;2024-03-02T11:40:51;100126.09;;;20.49;49.41
70555;BME280;58104;52.744;15.242;2024-03-02T11:43:17;100126.66;;;20.76;49.10
70555;BME280;58104;52.744;15.242;2024-03-02T11:45:43;100129.78;;;20.86;48.12
70555;BME280;58104;52.744;15.242;2024-03-02T11:48:08;100133.02;;;21.03;48.11
70555;BME280;58104;52.744;15.242;2024-03-02T11:50:35;100131.61;;;21.04;48.69
70555;BME280;58104;52.744;15.242;2024-03-02T11:52:58;100133.00;;;21.06;48.46
70555;BME280;58104;52.744;15.242;2024-03-02T11:55:25;100133.25;;;21.05;46.69
70555;BME280;58104;52.744;15.242;2024-03-02T11:57:50;100130.52;;;21.03;47.35
70555;BME280;58104;52.744;15.242;2024-03-02T12:00:17;100131.99;;;21.12;48.32
70555;BME280;58104;52.744;15.242;2024-03-02T12:02:39;100132.07;;;21.23;47.64
70555;BME280;58104;52.744;15.242;2024-03-02T12:05:05;100135.73;;;21.25;45.77
70555;BME280;58104;52.744;15.242;2024-03-02T12:07:30;100132.54;;;21.35;46.90
70555;BME280;58104;52.744;15.242;2024-03-02T12:10:00;100135.87;;;21.37;44.91
70555;BME280;58104;52.744;15.242;2024-03-02T12:12:20;100136.79;;;21.39;46.48
70555;BME280;58104;52.744;15.242;2024-03-02T12:14:51;100134.26;;;21.48;46.18
70555;BME280;58104;52.744;15.242;2024-03-02T12:17:12;100134.48;;;21.60;45.99
70555;BME280;58104;52.744;15.242;2024-03-02T12:19:37;100136.76;;;21.95;45.22
70555;BME280;58104;52.744;15.242;2024-03-02T12:22:03;100131.71;;;22.25;44.39
70555;BME280;58104;52.744;15.242;2024-03-02T12:24:29;100129.26;;;22.79;41.85
70555;BME280;58104;52.744;15.242;2024-03-02T12:26:53;100124.30;;;23.65;41.10
70555;BME280;58104;52.744;15.242;2024-03-02T12:29:20;100129.32;;;24.08;39.90
70555;BME280;58104;52.744;15.242;2024-03-02T12:31:45;100131.84;;;24.51;38.20
70555;BME280;58104;52.744;15.242;2024-03-02T12:34:11;100128.30;;;24.82;38.44